createdAt,value
2023-03-01T00:01:35.164Z,-3.33
2023-03-01T00:04:02.670Z,-3.47
2023-03-01T00:06:31.937Z,-3.69
2023-03-01T00:08:59.695Z,-4.04
2023-03-01T00:11:29.788Z,-3.96
2023-03-01T00:14:01.731Z,-3.77
2023-03-01T00:16:31.747Z,-3.82
2023-03-01T00:18:59.619Z,-3.70
2023-03-01T00:21:28.095Z,-3.65
2023-03-01T00:23:57.454Z,-3.67
2023-03-01T00:26:26.669Z,-3.67
2023-03-01T00:28:54.537Z,-3.67
2023-03-01T00:31:24.615Z,-3.70
2023-03-01T00:33:54.830Z,-3.79
2023-03-01T00:36:22.243Z,-3.95
2023-03-01T00:38:49.655Z,-3.90
2023-03-01T00:41:20.134Z,-3.90
2023-03-01T00:43:47.896Z,-3.87
2023-03-01T00:46:18.489Z,-3.80
2023-03-01T00:48:46.077Z,-3.79
2023-03-01T00:51:15.699Z,-3.84
2023-03-01T00:53:43.572Z,-3.97
2023-03-01T00:56:13.533Z,-4.07
2023-03-01T00:58:42.427Z,-3.95
2023-03-01T01:01:18.410Z,-4.09
2023-03-01T01:03:47.866Z,-4.45
2023-03-01T01:06:17.015Z,-4.73
2023-03-01T01:08:44.474Z,-4.93
2023-03-01T01:11:12.167Z,-4.94
2023-03-01T01:13:39.701Z,-4.71
2023-03-01T01:16:09.366Z,-4.48
2023-03-01T01:18:37.255Z,-4.48
2023-03-01T01:21:09.501Z,-4.59
2023-03-01T01:23:37.958Z,-4.52
2023-03-01T01:26:06.953Z,-4.59
2023-03-01T01:28:34.605Z,-4.50
2023-03-01T01:31:02.144Z,-4.51
2023-03-01T01:33:31.077Z,-4.53
2023-03-01T01:35:58.896Z,-4.82
2023-03-01T01:38:26.917Z,-4.85
2023-03-01T01:40:54.434Z,-4.77
2023-03-01T01:43:24.320Z,-4.63
2023-03-01T01:45:57.006Z,-4.81
2023-03-01T01:48:28.245Z,-4.71
2023-03-01T01:51:01.068Z,-4.69
2023-03-01T01:53:30.051Z,-4.64
2023-03-01T01:56:02.341Z,-4.62
2023-03-01T01:58:32.333Z,-4.56
2023-03-01T02:01:01.843Z,-4.64
2023-03-01T02:03:34.272Z,-4.82
2023-03-01T02:06:08.480Z,-5.03
2023-03-01T02:08:40.343Z,-5.24
2023-03-01T02:11:08.918Z,-5.43
2023-03-01T02:13:37.178Z,-5.62
2023-03-01T02:16:06.431Z,-5.70
2023-03-01T02:18:33.977Z,-5.82
2023-03-01T02:21:13.203Z,-5.95
2023-03-01T02:23:41.328Z,-6.09
2023-03-01T02:26:17.292Z,-6.10
2023-03-01T02:28:46.686Z,-6.11
2023-03-01T02:31:35.994Z,-6.00
2023-03-01T02:34:05.482Z,-5.96
2023-03-01T02:36:37.821Z,-5.95
2023-03-01T02:39:07.746Z,-5.69
2023-03-01T02:41:38.796Z,-5.51
2023-03-01T02:44:07.648Z,-5.45
2023-03-01T02:46:35.135Z,-5.37
2023-03-01T02:49:02.655Z,-5.43
2023-03-01T02:51:45.383Z,-5.39
2023-03-01T02:54:24.382Z,-5.38
2023-03-01T02:56:52.527Z,-5.63
2023-03-01T02:59:24.377Z,-5.68
2023-03-01T03:01:51.864Z,-5.53
2023-03-01T03:04:21.791Z,-5.42
2023-03-01T03:06:51.246Z,-5.53
2023-03-01T03:09:19.656Z,-5.67
2023-03-01T03:11:47.848Z,-5.81
2023-03-01T03:14:17.442Z,-5.78
2023-03-01T03:16:49.199Z,-5.98
2023-03-01T03:19:17.501Z,-5.98
2023-03-01T03:21:45.351Z,-5.66
2023-03-01T03:24:12.819Z,-5.64
2023-03-01T03:26:40.266Z,-5.61
2023-03-01T03:29:07.718Z,-5.83
2023-03-01T03:31:35.740Z,-6.15
2023-03-01T03:34:04.548Z,-6.20
2023-03-01T03:36:32.238Z,-6.16
2023-03-01T03:39:00.132Z,-6.19
2023-03-01T03:41:27.635Z,-6.05
2023-03-01T03:43:55.071Z,-6.16
2023-03-01T03:46:22.481Z,-6.09
2023-03-01T03:48:50.897Z,-6.11
2023-03-01T03:51:20.397Z,-6.01
2023-03-01T03:53:47.991Z,-6.04
2023-03-01T03:56:15.628Z,-6.11
2023-03-01T03:58:43.083Z,-6.12
2023-03-01T04:01:10.535Z,-5.93
2023-03-01T04:03:38.168Z,-6.14
2023-03-01T04:06:06.886Z,-6.29
2023-03-01T04:08:35.645Z,-6.39
2023-03-01T04:11:26.090Z,-6.43
2023-03-01T04:13:55.168Z,-6.46
2023-03-01T04:16:22.704Z,-6.49
2023-03-01T04:18:50.215Z,-6.52
2023-03-01T04:21:17.692Z,-6.47
2023-03-01T04:23:46.488Z,-6.45
2023-03-01T04:26:13.939Z,-6.47
2023-03-01T04:28:45.892Z,-6.58
2023-03-01T04:31:16.447Z,-6.56
2023-03-01T04:33:45.786Z,-6.61
2023-03-01T04:36:15.477Z,-6.69
2023-03-01T04:38:43.462Z,-6.81
2023-03-01T04:41:12.754Z,-6.91
2023-03-01T04:43:40.376Z,-7.03
2023-03-01T04:46:10.820Z,-7.02
2023-03-01T04:48:39.557Z,-6.94
2023-03-01T04:51:08.363Z,-6.92
2023-03-01T04:53:37.966Z,-7.11
2023-03-01T04:56:06.336Z,-7.34
2023-03-01T04:58:35.112Z,-7.44
2023-03-01T05:01:02.537Z,-7.67
2023-03-01T05:03:30.003Z,-7.68
2023-03-01T05:06:01.438Z,-7.83
2023-03-01T05:08:28.865Z,-7.82
2023-03-01T05:10:56.350Z,-7.81
2023-03-01T05:13:24.032Z,-7.74
2023-03-01T05:15:56.692Z,-7.23
2023-03-01T05:18:26.692Z,-7.14
2023-03-01T05:20:57.143Z,-7.00
2023-03-01T05:23:24.624Z,-6.87
2023-03-01T05:25:53.157Z,-6.88
2023-03-01T05:28:22.012Z,-7.02
2023-03-01T05:30:52.455Z,-7.02
2023-03-01T05:33:22.856Z,-7.16
2023-03-01T05:35:51.460Z,-7.28
2023-03-01T05:38:19.838Z,-7.34
2023-03-01T05:40:49.358Z,-7.43
2023-03-01T05:43:18.919Z,-7.47
2023-03-01T05:45:47.542Z,-7.44
2023-03-01T05:48:15.707Z,-7.45
2023-03-01T05:50:46.516Z,-7.21
2023-03-01T05:53:15.665Z,-7.13
2023-03-01T05:55:43.872Z,-7.07
2023-03-01T05:58:15.002Z,-7.12
2023-03-01T06:00:43.420Z,-6.96
2023-03-01T06:03:12.271Z,-6.96
2023-03-01T06:05:40.239Z,-6.83
2023-03-01T06:08:09.426Z,-6.91
2023-03-01T06:10:37.103Z,-7.02
2023-03-01T06:13:05.006Z,-7.09
2023-03-01T06:15:32.494Z,-7.14
2023-03-01T06:18:00.420Z,-7.04
2023-03-01T06:20:29.745Z,-7.15
2023-03-01T06:22:57.680Z,-7.09
2023-03-01T06:25:28.435Z,-7.39
2023-03-01T06:27:56.108Z,-7.26
2023-03-01T06:30:25.936Z,-7.15
2023-03-01T06:32:53.520Z,-6.93
2023-03-01T06:35:21.746Z,-7.12
2023-03-01T06:37:49.720Z,-7.20
2023-03-01T06:40:17.754Z,-7.45
2023-03-01T06:42:50.936Z,-7.55
2023-03-01T06:45:20.325Z,-7.68
2023-03-01T06:47:47.943Z,-7.71
2023-03-01T06:50:16.125Z,-7.77
2023-03-01T06:52:45.543Z,-7.65
2023-03-01T06:55:13.793Z,-7.52
2023-03-01T06:57:41.748Z,-7.38
2023-03-01T07:00:12.086Z,-7.17
2023-03-01T07:02:39.579Z,-6.98
2023-03-01T07:05:07.626Z,-6.78
2023-03-01T07:07:35.080Z,-6.67
2023-03-01T07:10:02.690Z,-6.54
2023-03-01T07:12:30.145Z,-6.38
2023-03-01T07:14:57.614Z,-6.32
2023-03-01T07:17:26.562Z,-6.10
2023-03-01T07:19:54.045Z,-6.42
2023-03-01T07:22:21.554Z,-6.63
2023-03-01T07:24:49.022Z,-6.51
2023-03-01T07:27:16.617Z,-6.51
2023-03-01T07:29:44.100Z,-6.41
2023-03-01T07:32:12.686Z,-6.24
2023-03-01T07:34:41.889Z,-6.01
2023-03-01T07:37:09.325Z,-5.52
2023-03-01T07:39:36.831Z,-5.22
2023-03-01T07:42:04.354Z,-4.90
2023-03-01T07:44:31.807Z,-4.86
2023-03-01T07:46:59.282Z,-4.65
2023-03-01T07:49:28.220Z,-4.48
2023-03-01T07:51:57.072Z,-4.53
2023-03-01T07:54:24.507Z,-4.41
2023-03-01T07:56:51.933Z,-4.76
2023-03-01T07:59:19.494Z,-4.29
2023-03-01T08:01:46.957Z,-4.06
2023-03-01T08:04:14.402Z,-3.68
2023-03-01T08:06:41.879Z,-3.61
2023-03-01T08:09:10.654Z,-3.52
2023-03-01T08:11:38.539Z,-3.35
2023-03-01T08:14:06.075Z,-3.25
2023-03-01T08:16:36.211Z,-3.55
2023-03-01T08:19:06.197Z,-3.20
2023-03-01T08:21:35.568Z,-3.11
2023-03-01T08:24:03.156Z,-3.02
2023-03-01T08:26:32.553Z,-2.93
2023-03-01T08:29:01.173Z,-2.95
2023-03-01T08:31:32.900Z,-3.22
2023-03-01T08:34:02.278Z,-3.27
2023-03-01T08:36:31.841Z,-3.14
2023-03-01T08:39:00.010Z,-2.96
2023-03-01T08:41:28.323Z,-2.97
2023-03-01T08:44:00.250Z,-2.95
2023-03-01T08:46:28.533Z,-2.91
2023-03-01T08:48:56.265Z,-2.84
2023-03-01T08:51:24.792Z,-2.87
2023-03-01T08:53:52.280Z,-2.78
2023-03-01T08:56:20.507Z,-2.66
2023-03-01T08:58:48.978Z,-2.53
2023-03-01T09:01:20.694Z,-2.42
2023-03-01T09:03:48.515Z,-2.40
2023-03-01T09:06:17.387Z,-2.24
2023-03-01T09:08:46.538Z,-2.29
2023-03-01T09:11:16.795Z,-2.03
2023-03-01T09:13:44.524Z,-2.08
2023-03-01T09:16:13.957Z,-2.10
2023-03-01T09:18:42.996Z,-1.96
2023-03-01T09:21:12.846Z,-1.93
2023-03-01T09:23:42.220Z,-1.78
2023-03-01T09:26:10.531Z,-1.77
2023-03-01T09:28:38.453Z,-1.59
2023-03-01T09:31:06.599Z,-1.75
2023-03-01T09:33:35.347Z,-1.70
2023-03-01T09:36:06.431Z,-1.63
2023-03-01T09:38:33.874Z,-1.65
2023-03-01T09:41:01.894Z,-1.56
2023-03-01T09:43:39.550Z,-1.58
2023-03-01T09:46:11.702Z,-1.40
2023-03-01T09:48:44.222Z,-1.25
2023-03-01T09:51:19.476Z,-1.21
2023-03-01T09:53:47.390Z,-0.92
2023-03-01T09:56:22.283Z,-0.78
2023-03-01T09:58:54.822Z,-0.60
2023-03-01T10:01:33.704Z,-0.86
2023-03-01T10:04:13.444Z,-0.54
2023-03-01T10:06:47.612Z,-0.36
2023-03-01T10:09:17.960Z,-0.41
2023-03-01T10:11:50.574Z,-0.22
2023-03-01T10:14:31.004Z,-0.13
2023-03-01T10:17:03.712Z,-0.43
2023-03-01T10:19:35.702Z,-0.11
2023-03-01T10:22:12.220Z,0.01
2023-03-01T10:24:39.781Z,-0.13
2023-03-01T10:27:13.481Z,-0.03
2023-03-01T10:29:47.409Z,-0.01
2023-03-01T10:32:14.952Z,0.09
2023-03-01T10:34:42.558Z,-0.17
2023-03-01T10:37:14.537Z,0.17
2023-03-01T10:39:58.451Z,0.20
2023-03-01T10:42:30.903Z,0.29
2023-03-01T10:44:59.002Z,0.47
2023-03-01T10:47:28.858Z,0.40
2023-03-01T10:50:02.115Z,0.44
2023-03-01T10:52:35.441Z,0.26
2023-03-01T10:55:23.126Z,0.06
2023-03-01T10:57:51.176Z,0.27
2023-03-01T11:00:25.401Z,0.24
2023-03-01T11:03:05.366Z,0.44
2023-03-01T11:05:34.460Z,0.51
2023-03-01T11:08:05.034Z,0.28
2023-03-01T11:10:35.154Z,0.31
2023-03-01T11:13:10.862Z,0.11
2023-03-01T11:15:38.371Z,0.12
2023-03-01T11:18:14.155Z,0.36
2023-03-01T11:20:43.185Z,0.50
2023-03-01T11:23:14.722Z,0.46
2023-03-01T11:25:44.886Z,0.92
2023-03-01T11:28:16.211Z,0.60
2023-03-01T11:31:05.443Z,0.50
2023-03-01T11:33:39.070Z,0.54
2023-03-01T11:36:13.536Z,0.41
2023-03-01T11:38:42.695Z,0.47
2023-03-01T11:41:16.342Z,0.37
2023-03-01T11:43:52.883Z,0.51
2023-03-01T11:46:45.089Z,0.08
2023-03-01T11:49:28.820Z,0.33
2023-03-01T11:52:06.644Z,0.58
2023-03-01T11:54:47.805Z,0.74
2023-03-01T11:57:31.233Z,0.99
2023-03-01T12:00:17.440Z,0.84
2023-03-01T12:03:04.141Z,0.80
2023-03-01T12:06:07.640Z,0.75
2023-03-01T12:08:39.745Z,0.85
2023-03-01T12:11:23.915Z,0.95
2023-03-01T12:14:15.500Z,0.83
2023-03-01T12:17:02.502Z,1.03
2023-03-01T12:19:53.707Z,1.15
2023-03-01T12:22:31.907Z,1.07
2023-03-01T12:25:14.492Z,0.97
2023-03-01T12:27:58.173Z,1.29
2023-03-01T12:30:44.235Z,1.11
2023-03-01T12:33:24.433Z,1.12
2023-03-01T12:36:12.358Z,0.95
2023-03-01T12:38:43.428Z,0.97
2023-03-01T12:41:29.685Z,0.90
2023-03-01T12:44:12.922Z,1.24
2023-03-01T12:47:02.805Z,1.41
2023-03-01T12:49:34.907Z,1.24
2023-03-01T12:52:12.795Z,0.95
2023-03-01T12:54:40.334Z,1.10
2023-03-01T12:57:13.987Z,0.97
2023-03-01T12:59:53.464Z,1.07
2023-03-01T13:02:27.545Z,0.95
2023-03-01T13:05:16.874Z,1.15
2023-03-01T13:07:55.001Z,1.08
2023-03-01T13:10:29.877Z,1.35
2023-03-01T13:13:15.045Z,0.98
2023-03-01T13:15:48.613Z,1.14
2023-03-01T13:18:33.827Z,1.30
2023-03-01T13:21:06.442Z,1.36
2023-03-01T13:23:36.966Z,1.41
2023-03-01T13:26:13.871Z,1.38
2023-03-01T13:29:02.393Z,1.29
2023-03-01T13:32:01.564Z,1.44
2023-03-01T13:34:44.356Z,1.45
2023-03-01T13:37:20.220Z,1.25
2023-03-01T13:39:47.965Z,1.45
2023-03-01T13:42:38.216Z,1.56
2023-03-01T13:45:16.085Z,1.57
2023-03-01T13:47:47.239Z,1.58
2023-03-01T13:50:22.177Z,1.50
2023-03-01T13:52:53.974Z,1.37
2023-03-01T13:55:25.504Z,1.69
2023-03-01T13:57:58.193Z,1.75
2023-03-01T14:00:32.453Z,1.83
2023-03-01T14:03:08.062Z,1.88
2023-03-01T14:05:36.892Z,1.80
2023-03-01T14:08:04.837Z,1.96
2023-03-01T14:10:41.635Z,1.91
2023-03-01T14:13:27.247Z,1.75
2023-03-01T14:16:10.952Z,1.98
2023-03-01T14:18:47.646Z,1.88
2023-03-01T14:21:17.634Z,2.01
2023-03-01T14:23:45.154Z,2.07
2023-03-01T14:26:12.960Z,2.10
2023-03-01T14:28:41.907Z,2.30
2023-03-01T14:31:38.423Z,2.55
2023-03-01T14:34:21.163Z,2.84
2023-03-01T14:36:48.578Z,2.99
2023-03-01T14:39:21.228Z,3.27
2023-03-01T14:41:49.020Z,3.18
2023-03-01T14:44:23.728Z,3.74
2023-03-01T14:46:55.913Z,3.81
2023-03-01T14:49:27.812Z,4.08
2023-03-01T14:51:59.024Z,3.72
2023-03-01T14:54:28.977Z,3.61
2023-03-01T14:57:01.155Z,3.37
2023-03-01T14:59:29.048Z,3.68
2023-03-01T15:01:58.957Z,3.89
2023-03-01T15:04:29.401Z,3.84
2023-03-01T15:07:05.800Z,3.88
2023-03-01T15:09:35.784Z,3.84
2023-03-01T15:12:27.282Z,4.05
2023-03-01T15:15:03.866Z,4.04
2023-03-01T15:17:35.276Z,3.66
2023-03-01T15:20:07.654Z,3.92
2023-03-01T15:22:36.901Z,3.92
2023-03-01T15:25:04.662Z,3.91
2023-03-01T15:27:32.126Z,3.74
2023-03-01T15:30:02.879Z,4.08
2023-03-01T15:32:32.802Z,4.62
2023-03-01T15:35:01.328Z,4.16
2023-03-01T15:37:45.603Z,4.44
2023-03-01T15:40:22.215Z,3.78
2023-03-01T15:42:49.649Z,4.18
2023-03-01T15:45:25.606Z,4.29
2023-03-01T15:47:54.730Z,4.05
2023-03-01T15:50:24.301Z,4.09
2023-03-01T15:52:53.789Z,3.96
2023-03-01T15:55:23.993Z,4.23
2023-03-01T15:57:59.701Z,3.92
2023-03-01T16:00:27.233Z,3.92
2023-03-01T16:02:54.694Z,4.17
2023-03-01T16:05:24.463Z,3.72
2023-03-01T16:07:53.880Z,3.62
2023-03-01T16:10:21.497Z,3.60
2023-03-01T16:12:50.250Z,3.55
2023-03-01T16:15:20.386Z,4.07
2023-03-01T16:17:48.100Z,4.07
2023-03-01T16:20:27.148Z,3.57
2023-03-01T16:22:58.679Z,3.57
2023-03-01T16:25:26.161Z,3.85
2023-03-01T16:27:53.606Z,4.01
2023-03-01T16:30:22.887Z,3.89
2023-03-01T16:32:51.853Z,4.27
2023-03-01T16:35:21.625Z,4.25
2023-03-01T16:37:50.237Z,4.07
2023-03-01T16:40:21.690Z,3.46
2023-03-01T16:42:49.171Z,3.33
2023-03-01T16:45:25.285Z,3.39
2023-03-01T16:47:55.662Z,3.09
2023-03-01T16:50:23.417Z,2.42
2023-03-01T16:52:50.951Z,2.30
2023-03-01T16:55:19.968Z,2.12
2023-03-01T16:57:47.398Z,1.85
2023-03-01T17:00:16.182Z,1.76
2023-03-01T17:02:43.978Z,1.69
2023-03-01T17:05:12.679Z,1.49
2023-03-01T17:07:40.813Z,1.46
2023-03-01T17:10:10.772Z,1.23
2023-03-01T17:12:40.305Z,1.16
2023-03-01T17:15:08.772Z,1.00
2023-03-01T17:17:36.553Z,0.91
2023-03-01T17:20:05.046Z,0.90
2023-03-01T17:22:32.579Z,0.82
2023-03-01T17:25:00.830Z,0.79
2023-03-01T17:27:28.311Z,0.80
2023-03-01T17:29:57.131Z,0.74
2023-03-01T17:32:24.737Z,0.68
2023-03-01T17:34:52.299Z,0.48
2023-03-01T17:37:20.687Z,0.47
2023-03-01T17:39:48.140Z,0.40
2023-03-01T17:42:15.572Z,0.35
2023-03-01T17:44:43.938Z,0.21
2023-03-01T17:47:12.806Z,0.13
2023-03-01T17:49:40.234Z,0.07
2023-03-01T17:52:07.990Z,-0.05
2023-03-01T17:54:35.737Z,-0.19
2023-03-01T17:57:03.413Z,-0.24
2023-03-01T17:59:33.327Z,-0.54
2023-03-01T18:02:01.733Z,-0.46
2023-03-01T18:04:33.946Z,-0.39
2023-03-01T18:07:02.581Z,-0.41
2023-03-01T18:09:31.517Z,-0.61
2023-03-01T18:12:01.018Z,-0.38
2023-03-01T18:14:33.884Z,-0.39
2023-03-01T18:17:02.132Z,-0.39
2023-03-01T18:19:31.030Z,-0.46
2023-03-01T18:21:58.702Z,-0.41
2023-03-01T18:24:26.875Z,-0.32
2023-03-01T18:26:54.395Z,-0.44
2023-03-01T18:29:21.948Z,-0.14
2023-03-01T18:31:49.857Z,-0.14
2023-03-01T18:34:17.492Z,-0.14
2023-03-01T18:37:00.521Z,-0.41
2023-03-01T18:39:34.786Z,-0.36
2023-03-01T18:42:03.839Z,-0.36
2023-03-01T18:44:32.398Z,-0.52
2023-03-01T18:47:00.023Z,-0.69
2023-03-01T18:49:27.656Z,-0.50
2023-03-01T18:51:56.626Z,-0.49
2023-03-01T18:54:24.512Z,-0.50
2023-03-01T18:56:52.155Z,-0.61
2023-03-01T18:59:19.741Z,-0.62
2023-03-01T19:01:47.362Z,-0.65
2023-03-01T19:04:15.007Z,-0.64
2023-03-01T19:06:43.066Z,-0.65
2023-03-01T19:09:12.512Z,-0.67
2023-03-01T19:11:40.595Z,-0.74
2023-03-01T19:14:08.420Z,-0.77
2023-03-01T19:16:36.089Z,-1.07
2023-03-01T19:19:05.989Z,-0.74
2023-03-01T19:21:34.631Z,-0.70
2023-03-01T19:24:03.906Z,-0.83
2023-03-01T19:26:33.524Z,-0.90
2023-03-01T19:29:02.901Z,-0.77
2023-03-01T19:31:31.541Z,-1.02
2023-03-01T19:34:11.070Z,-0.83
2023-03-01T19:36:39.508Z,-1.06
2023-03-01T19:39:08.249Z,-1.24
2023-03-01T19:41:37.234Z,-1.39
2023-03-01T19:44:05.918Z,-1.53
2023-03-01T19:46:34.624Z,-1.55
2023-03-01T19:49:03.357Z,-1.86
2023-03-01T19:51:33.236Z,-1.98
2023-03-01T19:54:00.828Z,-2.10
2023-03-01T19:56:28.539Z,-2.30
2023-03-01T19:59:00.530Z,-2.19
2023-03-01T20:01:29.760Z,-2.12
2023-03-01T20:03:57.545Z,-2.08
2023-03-01T20:06:25.677Z,-2.06
2023-03-01T20:08:53.569Z,-2.01
2023-03-01T20:11:22.007Z,-1.82
2023-03-01T20:13:49.668Z,-1.98
2023-03-01T20:16:20.067Z,-1.91
2023-03-01T20:18:47.859Z,-1.94
2023-03-01T20:21:23.896Z,-1.89
2023-03-01T20:23:52.418Z,-1.86
2023-03-01T20:26:20.332Z,-1.91
2023-03-01T20:28:56.824Z,-1.56
2023-03-01T20:31:29.156Z,-1.45
2023-03-01T20:33:58.380Z,-1.36
2023-03-01T20:36:26.847Z,-1.20
2023-03-01T20:38:55.065Z,-1.12
2023-03-01T20:41:25.885Z,-1.29
2023-03-01T20:43:56.714Z,-1.39
2023-03-01T20:46:26.662Z,-1.38
2023-03-01T20:48:54.670Z,-1.65
2023-03-01T20:51:22.497Z,-1.74
2023-03-01T20:53:50.288Z,-1.70
2023-03-01T20:56:19.580Z,-1.66
2023-03-01T20:58:47.351Z,-1.83
2023-03-01T21:01:17.717Z,-1.71
2023-03-01T21:03:46.829Z,-1.70
2023-03-01T21:06:14.623Z,-1.95
2023-03-01T21:08:42.256Z,-2.08
2023-03-01T21:11:09.987Z,-2.28
2023-03-01T21:13:37.556Z,-2.53
2023-03-01T21:16:10.058Z,-2.82
2023-03-01T21:18:37.695Z,-2.85
2023-03-01T21:21:08.718Z,-3.02
2023-03-01T21:23:37.856Z,-3.12
2023-03-01T21:26:07.952Z,-3.21
2023-03-01T21:28:36.446Z,-3.14
2023-03-01T21:31:05.829Z,-3.10
2023-03-01T21:33:33.302Z,-2.91
2023-03-01T21:36:01.889Z,-2.89
2023-03-01T21:38:35.411Z,-2.69
2023-03-01T21:41:06.218Z,-2.63
2023-03-01T21:43:33.835Z,-2.28
2023-03-01T21:46:04.585Z,-2.23
2023-03-01T21:48:32.946Z,-2.11
2023-03-01T21:51:02.797Z,-1.95
2023-03-01T21:53:33.824Z,-1.96
2023-03-01T21:56:01.694Z,-1.97
2023-03-01T21:58:31.376Z,-1.97
2023-03-01T22:01:06.765Z,-1.88
2023-03-01T22:03:34.528Z,-1.96
2023-03-01T22:06:03.157Z,-2.06
2023-03-01T22:08:30.573Z,-2.29
2023-03-01T22:11:02.963Z,-2.51
2023-03-01T22:13:30.402Z,-3.08
2023-03-01T22:16:00.828Z,-2.94
2023-03-01T22:18:28.273Z,-3.09
2023-03-01T22:20:55.731Z,-3.17
2023-03-01T22:23:23.245Z,-3.32
2023-03-01T22:25:50.653Z,-3.53
2023-03-01T22:28:20.139Z,-3.66
2023-03-01T22:30:47.564Z,-3.71
2023-03-01T22:33:15.001Z,-3.87
2023-03-01T22:35:42.905Z,-3.97
2023-03-01T22:38:10.755Z,-4.06
2023-03-01T22:40:39.792Z,-4.00
2023-03-01T22:43:07.582Z,-3.96
2023-03-01T22:45:36.367Z,-3.91
2023-03-01T22:48:04.798Z,-3.88
2023-03-01T22:50:32.239Z,-3.86
2023-03-01T22:53:01.095Z,-3.97
2023-03-01T22:55:29.274Z,-3.93
2023-03-01T22:57:56.688Z,-4.05
2023-03-01T23:00:25.130Z,-3.79
2023-03-01T23:02:53.991Z,-3.85
2023-03-01T23:05:21.484Z,-3.77
2023-03-01T23:07:48.922Z,-3.72
2023-03-01T23:10:16.911Z,-3.59
2023-03-01T23:12:44.342Z,-3.66
2023-03-01T23:15:13.114Z,-3.69
2023-03-01T23:17:40.518Z,-3.31
2023-03-01T23:20:10.934Z,-3.30
2023-03-01T23:22:38.852Z,-3.06
2023-03-01T23:25:11.005Z,-2.91
2023-03-01T23:27:39.182Z,-2.79
2023-03-01T23:30:08.108Z,-2.84
2023-03-01T23:32:40.725Z,-3.12
2023-03-01T23:35:10.696Z,-3.35
2023-03-01T23:37:38.606Z,-3.58
2023-03-01T23:40:08.000Z,-3.56
2023-03-01T23:42:35.460Z,-3.56
2023-03-01T23:45:02.901Z,-3.41
2023-03-01T23:47:30.354Z,-3.35
2023-03-01T23:49:58.043Z,-3.56
2023-03-01T23:52:26.966Z,-3.56
2023-03-01T23:54:54.415Z,-3.76
2023-03-01T23:57:21.835Z,-3.86
2023-03-01T23:59:50.569Z,-3.87
